sensor_id;sensor_type;location;lat;lon;timestamp;P1;durP1;ratioP1;P2;durP2;ratioP2
41259;SDS011;26993;48.958;9.330;2022-08-19T00:02:18;15.40;;;13.90;;
41259;SDS011;26993;48.958;9.330;2022-08-19T00:05:05;16.25;;;14.38;;
41259;SDS011;26993;48.958;9.330;2022-08-19T00:07:52;15.77;;;14.20;;
41259;SDS011;26993;48.958;9.330;2022-08-19T00:10:38;16.40;;;14.38;;
41259;SDS011;26993;48.958;9.330;2022-08-19T00:13:25;17.02;;;15.35;;
41259;SDS011;26993;48.958;9.330;2022-08-19T00:16:13;16.65;;;14.88;;
41259;SDS011;26993;48.958;9.330;2022-08-19T00:19:02;15.80;;;14.18;;
41259;SDS011;26993;48.958;9.330;2022-08-19T00:21:49;16.63;;;14.82;;
41259;SDS011;26993;48.958;9.330;2022-08-19T00:24:36;16.63;;;14.80;;
41259;SDS011;26993;48.958;9.330;2022-08-19T00:27:23;16.02;;;14.43;;
41259;SDS011;26993;48.958;9.330;2022-08-19T00:30:11;16.23;;;14.63;;
41259;SDS011;26993;48.958;9.330;2022-08-19T00:32:58;16.98;;;15.27;;
41259;SDS011;26993;48.958;9.330;2022-08-19T00:35:46;17.90;;;15.15;;
41259;SDS011;26993;48.958;9.330;2022-08-19T00:38:33;16.25;;;14.50;;
41259;SDS011;26993;48.958;9.330;2022-08-19T00:41:20;16.40;;;14.52;;
41259;SDS011;26993;48.958;9.330;2022-08-19T00:44:11;19.67;;;15.52;;
41259;SDS011;26993;48.958;9.330;2022-08-19T00:46:59;18.65;;;15.15;;
41259;SDS011;26993;48.958;9.330;2022-08-19T00:49:47;16.73;;;14.93;;
41259;SDS011;26993;48.958;9.330;2022-08-19T00:52:38;16.67;;;14.98;;
41259;SDS011;26993;48.958;9.330;2022-08-19T00:55:30;16.27;;;14.35;;
41259;SDS011;26993;48.958;9.330;2022-08-19T00:58:19;18.17;;;15.50;;
41259;SDS011;26993;48.958;9.330;2022-08-19T01:01:08;16.48;;;14.77;;
41259;SDS011;26993;48.958;9.330;2022-08-19T01:03:55;16.85;;;14.55;;
41259;SDS011;26993;48.958;9.330;2022-08-19T01:06:41;18.98;;;15.45;;
41259;SDS011;26993;48.958;9.330;2022-08-19T01:09:29;17.05;;;14.82;;
41259;SDS011;26993;48.958;9.330;2022-08-19T01:12:17;18.77;;;15.55;;
41259;SDS011;26993;48.958;9.330;2022-08-19T01:15:05;17.15;;;15.43;;
41259;SDS011;26993;48.958;9.330;2022-08-19T01:17:54;17.75;;;15.77;;
41259;SDS011;26993;48.958;9.330;2022-08-19T01:20:42;18.65;;;15.98;;
41259;SDS011;26993;48.958;9.330;2022-08-19T01:23:30;17.35;;;15.20;;
41259;SDS011;26993;48.958;9.330;2022-08-19T01:26:28;18.42;;;16.38;;
41259;SDS011;26993;48.958;9.330;2022-08-19T01:29:15;18.10;;;15.90;;
41259;SDS011;26993;48.958;9.330;2022-08-19T01:32:02;17.60;;;15.63;;
41259;SDS011;26993;48.958;9.330;2022-08-19T01:34:49;23.00;;;16.75;;
41259;SDS011;26993;48.958;9.330;2022-08-19T01:37:43;17.88;;;15.98;;
41259;SDS011;26993;48.958;9.330;2022-08-19T01:40:37;19.90;;;16.23;;
41259;SDS011;26993;48.958;9.330;2022-08-19T01:43:27;21.88;;;16.77;;
41259;SDS011;26993;48.958;9.330;2022-08-19T01:46:13;19.63;;;16.45;;
41259;SDS011;26993;48.958;9.330;2022-08-19T01:49:01;19.98;;;16.95;;
41259;SDS011;26993;48.958;9.330;2022-08-19T01:51:48;18.17;;;16.10;;
41259;SDS011;26993;48.958;9.330;2022-08-19T01:54:35;23.38;;;17.52;;
41259;SDS011;26993;48.958;9.330;2022-08-19T01:57:23;20.25;;;17.23;;
41259;SDS011;26993;48.958;9.330;2022-08-19T02:00:12;21.98;;;17.65;;
41259;SDS011;26993;48.958;9.330;2022-08-19T02:03:01;22.25;;;18.45;;
41259;SDS011;26993;48.958;9.330;2022-08-19T02:05:47;19.70;;;16.80;;
41259;SDS011;26993;48.958;9.330;2022-08-19T02:08:40;19.20;;;17.08;;
41259;SDS011;26993;48.958;9.330;2022-08-19T02:11:27;22.02;;;17.77;;
41259;SDS011;26993;48.958;9.330;2022-08-19T02:14:17;20.70;;;17.38;;
41259;SDS011;26993;48.958;9.330;2022-08-19T02:17:04;25.00;;;17.23;;
41259;SDS011;26993;48.958;9.330;2022-08-19T02:19:51;19.92;;;16.45;;
41259;SDS011;26993;48.958;9.330;2022-08-19T02:22:37;22.27;;;17.60;;
41259;SDS011;26993;48.958;9.330;2022-08-19T02:25:26;19.40;;;16.52;;
41259;SDS011;26993;48.958;9.330;2022-08-19T02:28:13;23.27;;;18.15;;
41259;SDS011;26993;48.958;9.330;2022-08-19T02:31:02;19.85;;;17.60;;
41259;SDS011;26993;48.958;9.330;2022-08-19T02:33:49;21.40;;;17.13;;
41259;SDS011;26993;48.958;9.330;2022-08-19T02:36:37;23.02;;;17.23;;
41259;SDS011;26993;48.958;9.330;2022-08-19T02:39:24;23.27;;;18.05;;
41259;SDS011;26993;48.958;9.330;2022-08-19T02:42:09;21.15;;;17.10;;
41259;SDS011;26993;48.958;9.330;2022-08-19T02:44:57;20.58;;;17.40;;
41259;SDS011;26993;48.958;9.330;2022-08-19T02:47:46;26.88;;;18.75;;
41259;SDS011;26993;48.958;9.330;2022-08-19T02:50:32;21.60;;;17.60;;
41259;SDS011;26993;48.958;9.330;2022-08-19T02:53:19;24.45;;;18.10;;
41259;SDS011;26993;48.958;9.330;2022-08-19T02:56:07;22.33;;;18.27;;
41259;SDS011;26993;48.958;9.330;2022-08-19T02:58:54;22.55;;;18.83;;
41259;SDS011;26993;48.958;9.330;2022-08-19T03:01:41;27.90;;;19.30;;
41259;SDS011;26993;48.958;9.330;2022-08-19T03:04:29;21.63;;;18.20;;
41259;SDS011;26993;48.958;9.330;2022-08-19T03:07:16;24.77;;;18.50;;
41259;SDS011;26993;48.958;9.330;2022-08-19T03:10:04;22.10;;;18.42;;
41259;SDS011;26993;48.958;9.330;2022-08-19T03:12:52;24.48;;;18.83;;
41259;SDS011;26993;48.958;9.330;2022-08-19T03:15:39;24.05;;;19.05;;
41259;SDS011;26993;48.958;9.330;2022-08-19T03:18:27;21.55;;;18.45;;
41259;SDS011;26993;48.958;9.330;2022-08-19T03:21:16;22.17;;;18.45;;
41259;SDS011;26993;48.958;9.330;2022-08-19T03:24:04;27.13;;;19.33;;
41259;SDS011;26993;48.958;9.330;2022-08-19T03:26:53;23.08;;;19.33;;
41259;SDS011;26993;48.958;9.330;2022-08-19T03:29:42;26.67;;;18.55;;
41259;SDS011;26993;48.958;9.330;2022-08-19T03:32:29;24.80;;;19.98;;
41259;SDS011;26993;48.958;9.330;2022-08-19T03:35:16;24.73;;;19.25;;
41259;SDS011;26993;48.958;9.330;2022-08-19T03:38:06;22.25;;;18.70;;
41259;SDS011;26993;48.958;9.330;2022-08-19T03:40:53;27.65;;;19.85;;
41259;SDS011;26993;48.958;9.330;2022-08-19T03:43:40;24.75;;;19.50;;
41259;SDS011;26993;48.958;9.330;2022-08-19T03:46:28;26.83;;;20.15;;
41259;SDS011;26993;48.958;9.330;2022-08-19T03:49:17;24.70;;;20.10;;
41259;SDS011;26993;48.958;9.330;2022-08-19T03:52:05;31.15;;;21.52;;
41259;SDS011;26993;48.958;9.330;2022-08-19T03:54:54;25.63;;;20.48;;
41259;SDS011;26993;48.958;9.330;2022-08-19T03:57:41;25.25;;;20.58;;
41259;SDS011;26993;48.958;9.330;2022-08-19T04:00:27;26.52;;;20.10;;
41259;SDS011;26993;48.958;9.330;2022-08-19T04:03:14;24.52;;;19.20;;
41259;SDS011;26993;48.958;9.330;2022-08-19T04:06:08;25.38;;;19.75;;
41259;SDS011;26993;48.958;9.330;2022-08-19T04:08:58;25.58;;;20.33;;
41259;SDS011;26993;48.958;9.330;2022-08-19T04:11:48;27.92;;;21.02;;
41259;SDS011;26993;48.958;9.330;2022-08-19T04:14:39;25.60;;;19.73;;
41259;SDS011;26993;48.958;9.330;2022-08-19T04:17:25;26.20;;;20.30;;
41259;SDS011;26993;48.958;9.330;2022-08-19T04:20:12;26.35;;;20.83;;
41259;SDS011;26993;48.958;9.330;2022-08-19T04:22:59;31.55;;;20.38;;
41259;SDS011;26993;48.958;9.330;2022-08-19T04:25:45;27.10;;;21.17;;
41259;SDS011;26993;48.958;9.330;2022-08-19T04:28:33;28.70;;;21.88;;
41259;SDS011;26993;48.958;9.330;2022-08-19T04:31:23;29.40;;;21.25;;
41259;SDS011;26993;48.958;9.330;2022-08-19T04:34:13;28.15;;;21.05;;
41259;SDS011;26993;48.958;9.330;2022-08-19T04:37:05;32.38;;;23.95;;
41259;SDS011;26993;48.958;9.330;2022-08-19T04:39:56;26.88;;;21.02;;
41259;SDS011;26993;48.958;9.330;2022-08-19T04:43:00;30.00;;;21.95;;
41259;SDS011;26993;48.958;9.330;2022-08-19T04:45:48;27.98;;;21.88;;
41259;SDS011;26993;48.958;9.330;2022-08-19T04:48:36;28.17;;;21.52;;
41259;SDS011;26993;48.958;9.330;2022-08-19T04:51:24;28.35;;;21.55;;
41259;SDS011;26993;48.958;9.330;2022-08-19T04:54:11;28.00;;;20.98;;
41259;SDS011;26993;48.958;9.330;2022-08-19T04:56:58;29.73;;;22.40;;
41259;SDS011;26993;48.958;9.330;2022-08-19T04:59:45;29.25;;;21.80;;
41259;SDS011;26993;48.958;9.330;2022-08-19T05:02:33;30.10;;;23.08;;
41259;SDS011;26993;48.958;9.330;2022-08-19T05:05:19;27.17;;;21.42;;
41259;SDS011;26993;48.958;9.330;2022-08-19T05:08:06;33.03;;;21.10;;
41259;SDS011;26993;48.958;9.330;2022-08-19T05:10:53;32.38;;;21.85;;
41259;SDS011;26993;48.958;9.330;2022-08-19T05:13:40;28.73;;;22.25;;
41259;SDS011;26993;48.958;9.330;2022-08-19T05:16:27;30.30;;;21.75;;
41259;SDS011;26993;48.958;9.330;2022-08-19T05:19:15;28.25;;;22.45;;
41259;SDS011;26993;48.958;9.330;2022-08-19T05:22:19;30.13;;;23.63;;
41259;SDS011;26993;48.958;9.330;2022-08-19T05:25:20;29.63;;;22.05;;
41259;SDS011;26993;48.958;9.330;2022-08-19T05:28:07;28.80;;;22.42;;
41259;SDS011;26993;48.958;9.330;2022-08-19T05:30:54;29.42;;;23.60;;
41259;SDS011;26993;48.958;9.330;2022-08-19T05:33:41;31.75;;;23.00;;
41259;SDS011;26993;48.958;9.330;2022-08-19T05:36:32;29.38;;;22.50;;
41259;SDS011;26993;48.958;9.330;2022-08-19T05:39:20;33.08;;;23.77;;
41259;SDS011;26993;48.958;9.330;2022-08-19T05:42:08;36.00;;;25.30;;
41259;SDS011;26993;48.958;9.330;2022-08-19T05:44:56;27.98;;;21.92;;
41259;SDS011;26993;48.958;9.330;2022-08-19T05:47:43;28.60;;;23.10;;
41259;SDS011;26993;48.958;9.330;2022-08-19T05:50:30;29.55;;;24.10;;
41259;SDS011;26993;48.958;9.330;2022-08-19T05:53:18;31.17;;;24.67;;
41259;SDS011;26993;48.958;9.330;2022-08-19T05:56:05;32.10;;;23.17;;
41259;SDS011;26993;48.958;9.330;2022-08-19T05:58:53;33.83;;;25.13;;
41259;SDS011;26993;48.958;9.330;2022-08-19T06:01:40;28.35;;;23.40;;
41259;SDS011;26993;48.958;9.330;2022-08-19T06:04:31;32.67;;;25.77;;
41259;SDS011;26993;48.958;9.330;2022-08-19T06:07:18;30.98;;;24.40;;
41259;SDS011;26993;48.958;9.330;2022-08-19T06:10:07;34.28;;;24.42;;
41259;SDS011;26993;48.958;9.330;2022-08-19T06:12:55;31.50;;;25.02;;
41259;SDS011;26993;48.958;9.330;2022-08-19T06:15:42;31.88;;;25.20;;
41259;SDS011;26993;48.958;9.330;2022-08-19T06:18:31;35.13;;;25.73;;
41259;SDS011;26993;48.958;9.330;2022-08-19T06:21:18;36.80;;;25.73;;
41259;SDS011;26993;48.958;9.330;2022-08-19T06:24:05;30.30;;;24.63;;
41259;SDS011;26993;48.958;9.330;2022-08-19T06:26:56;32.72;;;25.33;;
41259;SDS011;26993;48.958;9.330;2022-08-19T06:29:44;34.65;;;25.17;;
41259;SDS011;26993;48.958;9.330;2022-08-19T06:32:31;36.03;;;25.08;;
41259;SDS011;26993;48.958;9.330;2022-08-19T06:35:18;28.58;;;23.65;;
41259;SDS011;26993;48.958;9.330;2022-08-19T06:38:05;31.13;;;25.00;;
41259;SDS011;26993;48.958;9.330;2022-08-19T06:40:59;31.25;;;24.75;;
41259;SDS011;26993;48.958;9.330;2022-08-19T06:43:48;33.50;;;26.30;;
41259;SDS011;26993;48.958;9.330;2022-08-19T06:46:35;34.08;;;25.92;;
41259;SDS011;26993;48.958;9.330;2022-08-19T06:49:22;31.00;;;25.35;;
41259;SDS011;26993;48.958;9.330;2022-08-19T06:52:11;34.60;;;26.38;;
41259;SDS011;26993;48.958;9.330;2022-08-19T06:54:59;34.33;;;26.33;;
41259;SDS011;26993;48.958;9.330;2022-08-19T06:57:46;35.38;;;27.05;;
41259;SDS011;26993;48.958;9.330;2022-08-19T07:00:34;39.55;;;28.15;;
41259;SDS011;26993;48.958;9.330;2022-08-19T07:03:21;38.85;;;27.20;;
41259;SDS011;26993;48.958;9.330;2022-08-19T07:06:09;33.42;;;26.65;;
41259;SDS011;26993;48.958;9.330;2022-08-19T07:08:57;31.73;;;24.73;;
41259;SDS011;26993;48.958;9.330;2022-08-19T07:11:45;30.83;;;25.60;;
41259;SDS011;26993;48.958;9.330;2022-08-19T07:14:33;30.70;;;24.33;;
41259;SDS011;26993;48.958;9.330;2022-08-19T07:17:23;32.55;;;23.85;;
41259;SDS011;26993;48.958;9.330;2022-08-19T07:20:10;29.75;;;23.85;;
41259;SDS011;26993;48.958;9.330;2022-08-19T07:22:57;27.85;;;22.95;;
41259;SDS011;26993;48.958;9.330;2022-08-19T07:25:44;29.90;;;23.48;;
41259;SDS011;26993;48.958;9.330;2022-08-19T07:28:31;28.00;;;23.00;;
41259;SDS011;26993;48.958;9.330;2022-08-19T07:31:18;28.45;;;22.10;;
41259;SDS011;26993;48.958;9.330;2022-08-19T07:34:09;33.90;;;23.02;;
41259;SDS011;26993;48.958;9.330;2022-08-19T07:36:58;30.00;;;22.40;;
41259;SDS011;26993;48.958;9.330;2022-08-19T07:39:45;31.42;;;22.27;;
41259;SDS011;26993;48.958;9.330;2022-08-19T07:42:31;29.80;;;22.95;;
41259;SDS011;26993;48.958;9.330;2022-08-19T07:45:18;29.23;;;21.65;;
41259;SDS011;26993;48.958;9.330;2022-08-19T07:48:05;26.65;;;21.90;;
41259;SDS011;26993;48.958;9.330;2022-08-19T07:50:53;36.28;;;21.92;;
41259;SDS011;26993;48.958;9.330;2022-08-19T07:53:42;30.13;;;22.05;;
41259;SDS011;26993;48.958;9.330;2022-08-19T07:56:29;25.90;;;21.00;;
41259;SDS011;26993;48.958;9.330;2022-08-19T07:59:16;26.60;;;20.92;;
41259;SDS011;26993;48.958;9.330;2022-08-19T08:02:03;25.67;;;21.17;;
41259;SDS011;26993;48.958;9.330;2022-08-19T08:04:50;27.08;;;20.60;;
41259;SDS011;26993;48.958;9.330;2022-08-19T08:07:58;27.63;;;21.65;;
41259;SDS011;26993;48.958;9.330;2022-08-19T08:11:02;27.63;;;21.17;;
41259;SDS011;26993;48.958;9.330;2022-08-19T08:13:49;28.15;;;21.15;;
41259;SDS011;26993;48.958;9.330;2022-08-19T08:16:37;28.17;;;20.90;;
41259;SDS011;26993;48.958;9.330;2022-08-19T08:19:25;28.05;;;21.38;;
41259;SDS011;26993;48.958;9.330;2022-08-19T08:22:15;25.17;;;21.27;;
41259;SDS011;26993;48.958;9.330;2022-08-19T08:25:19;31.20;;;20.63;;
41259;SDS011;26993;48.958;9.330;2022-08-19T08:28:08;27.73;;;21.10;;
41259;SDS011;26993;48.958;9.330;2022-08-19T08:30:56;31.02;;;21.63;;
41259;SDS011;26993;48.958;9.330;2022-08-19T08:33:44;29.38;;;20.52;;
41259;SDS011;26993;48.958;9.330;2022-08-19T08:36:31;26.50;;;20.42;;
41259;SDS011;26993;48.958;9.330;2022-08-19T08:39:19;28.88;;;19.70;;
41259;SDS011;26993;48.958;9.330;2022-08-19T08:42:11;26.25;;;20.77;;
41259;SDS011;26993;48.958;9.330;2022-08-19T08:45:05;28.02;;;20.75;;
41259;SDS011;26993;48.958;9.330;2022-08-19T08:48:02;29.85;;;20.23;;
41259;SDS011;26993;48.958;9.330;2022-08-19T08:50:56;29.48;;;19.80;;
41259;SDS011;26993;48.958;9.330;2022-08-19T08:53:45;26.75;;;19.98;;
41259;SDS011;26993;48.958;9.330;2022-08-19T08:56:34;29.25;;;20.63;;
41259;SDS011;26993;48.958;9.330;2022-08-19T08:59:23;27.52;;;19.98;;
41259;SDS011;26993;48.958;9.330;2022-08-19T09:02:17;24.25;;;19.13;;
41259;SDS011;26993;48.958;9.330;2022-08-19T09:05:05;24.33;;;18.40;;
41259;SDS011;26993;48.958;9.330;2022-08-19T09:07:57;25.95;;;19.88;;
41259;SDS011;26993;48.958;9.330;2022-08-19T09:10:51;29.77;;;19.88;;
41259;SDS011;26993;48.958;9.330;2022-08-19T09:13:42;24.67;;;20.13;;
41259;SDS011;26993;48.958;9.330;2022-08-19T09:16:38;29.55;;;20.05;;
41259;SDS011;26993;48.958;9.330;2022-08-19T09:19:25;28.38;;;18.02;;
41259;SDS011;26993;48.958;9.330;2022-08-19T09:22:12;24.55;;;19.48;;
41259;SDS011;26993;48.958;9.330;2022-08-19T09:24:59;22.08;;;18.38;;
41259;SDS011;26993;48.958;9.330;2022-08-19T09:27:46;26.40;;;19.15;;
41259;SDS011;26993;48.958;9.330;2022-08-19T09:30:34;25.50;;;19.60;;
41259;SDS011;26993;48.958;9.330;2022-08-19T09:33:27;23.42;;;17.92;;
41259;SDS011;26993;48.958;9.330;2022-08-19T09:36:15;24.67;;;18.15;;
41259;SDS011;26993;48.958;9.330;2022-08-19T09:39:03;22.67;;;18.35;;
41259;SDS011;26993;48.958;9.330;2022-08-19T09:41:51;22.30;;;18.02;;
41259;SDS011;26993;48.958;9.330;2022-08-19T09:44:39;21.75;;;17.20;;
41259;SDS011;26993;48.958;9.330;2022-08-19T09:47:26;26.63;;;17.83;;
41259;SDS011;26993;48.958;9.330;2022-08-19T09:50:14;22.95;;;17.35;;
41259;SDS011;26993;48.958;9.330;2022-08-19T09:53:01;19.67;;;16.98;;
41259;SDS011;26993;48.958;9.330;2022-08-19T09:55:48;21.90;;;17.25;;
41259;SDS011;26993;48.958;9.330;2022-08-19T09:58:36;21.35;;;16.75;;
41259;SDS011;26993;48.958;9.330;2022-08-19T10:01:24;20.23;;;16.52;;
41259;SDS011;26993;48.958;9.330;2022-08-19T10:04:13;20.67;;;16.25;;
41259;SDS011;26993;48.958;9.330;2022-08-19T10:07:01;19.48;;;16.00;;
41259;SDS011;26993;48.958;9.330;2022-08-19T10:09:48;19.25;;;15.80;;
41259;SDS011;26993;48.958;9.330;2022-08-19T10:12:34;17.90;;;15.18;;
41259;SDS011;26993;48.958;9.330;2022-08-19T10:15:22;21.13;;;15.65;;
41259;SDS011;26993;48.958;9.330;2022-08-19T10:18:08;20.42;;;15.63;;
41259;SDS011;26993;48.958;9.330;2022-08-19T10:21:02;19.50;;;15.60;;
41259;SDS011;26993;48.958;9.330;2022-08-19T10:23:57;17.63;;;15.48;;
41259;SDS011;26993;48.958;9.330;2022-08-19T10:26:46;18.40;;;14.20;;
41259;SDS011;26993;48.958;9.330;2022-08-19T10:29:33;22.42;;;16.10;;
41259;SDS011;26993;48.958;9.330;2022-08-19T10:32:20;20.33;;;16.58;;
41259;SDS011;26993;48.958;9.330;2022-08-19T10:35:09;19.33;;;16.00;;
41259;SDS011;26993;48.958;9.330;2022-08-19T10:37:56;18.77;;;16.05;;
41259;SDS011;26993;48.958;9.330;2022-08-19T10:40:45;18.55;;;14.98;;
41259;SDS011;26993;48.958;9.330;2022-08-19T10:43:32;17.83;;;15.23;;
41259;SDS011;26993;48.958;9.330;2022-08-19T10:46:22;17.60;;;14.93;;
41259;SDS011;26993;48.958;9.330;2022-08-19T10:49:10;18.08;;;14.82;;
41259;SDS011;26993;48.958;9.330;2022-08-19T10:51:58;16.15;;;14.05;;
41259;SDS011;26993;48.958;9.330;2022-08-19T10:55:02;18.02;;;14.43;;
41259;SDS011;26993;48.958;9.330;2022-08-19T10:58:13;18.08;;;12.85;;
41259;SDS011;26993;48.958;9.330;2022-08-19T11:01:01;14.02;;;12.55;;
41259;SDS011;26993;48.958;9.330;2022-08-19T11:03:50;15.95;;;13.07;;
41259;SDS011;26993;48.958;9.330;2022-08-19T11:06:39;13.15;;;11.68;;
41259;SDS011;26993;48.958;9.330;2022-08-19T11:09:26;14.02;;;12.18;;
41259;SDS011;26993;48.958;9.330;2022-08-19T11:12:13;13.20;;;11.02;;
41259;SDS011;26993;48.958;9.330;2022-08-19T11:15:01;13.65;;;10.73;;
41259;SDS011;26993;48.958;9.330;2022-08-19T11:17:48;14.13;;;10.75;;
41259;SDS011;26993;48.958;9.330;2022-08-19T11:20:35;12.85;;;10.50;;
41259;SDS011;26993;48.958;9.330;2022-08-19T11:23:22;11.98;;;10.32;;
41259;SDS011;26993;48.958;9.330;2022-08-19T11:26:09;13.07;;;9.57;;
41259;SDS011;26993;48.958;9.330;2022-08-19T11:28:56;11.02;;;9.25;;
41259;SDS011;26993;48.958;9.330;2022-08-19T11:31:45;11.18;;;8.90;;
41259;SDS011;26993;48.958;9.330;2022-08-19T11:34:34;9.52;;;8.07;;
41259;SDS011;26993;48.958;9.330;2022-08-19T11:37:22;11.80;;;8.43;;
41259;SDS011;26993;48.958;9.330;2022-08-19T11:40:09;9.48;;;8.48;;
41259;SDS011;26993;48.958;9.330;2022-08-19T11:42:56;10.63;;;8.02;;
41259;SDS011;26993;48.958;9.330;2022-08-19T11:45:43;8.32;;;7.45;;
41259;SDS011;26993;48.958;9.330;2022-08-19T11:48:31;10.43;;;7.55;;
41259;SDS011;26993;48.958;9.330;2022-08-19T11:51:19;8.88;;;8.00;;
41259;SDS011;26993;48.958;9.330;2022-08-19T11:54:07;9.20;;;8.15;;
41259;SDS011;26993;48.958;9.330;2022-08-19T11:56:54;10.30;;;7.55;;
41259;SDS011;26993;48.958;9.330;2022-08-19T11:59:41;11.18;;;8.02;;
41259;SDS011;26993;48.958;9.330;2022-08-19T12:02:27;8.73;;;7.90;;
41259;SDS011;26993;48.958;9.330;2022-08-19T12:05:15;9.35;;;7.75;;
41259;SDS011;26993;48.958;9.330;2022-08-19T12:08:02;8.85;;;7.38;;
41259;SDS011;26993;48.958;9.330;2022-08-19T12:10:49;12.20;;;7.55;;
41259;SDS011;26993;48.958;9.330;2022-08-19T12:13:36;8.30;;;7.03;;
41259;SDS011;26993;48.958;9.330;2022-08-19T12:16:25;8.77;;;7.72;;
41259;SDS011;26993;48.958;9.330;2022-08-19T12:19:13;9.77;;;7.50;;
41259;SDS011;26993;48.958;9.330;2022-08-19T12:22:02;7.82;;;7.03;;
41259;SDS011;26993;48.958;9.330;2022-08-19T12:24:50;10.10;;;7.45;;
41259;SDS011;26993;48.958;9.330;2022-08-19T12:27:38;7.57;;;6.85;;
41259;SDS011;26993;48.958;9.330;2022-08-19T12:30:25;7.45;;;6.63;;
41259;SDS011;26993;48.958;9.330;2022-08-19T12:33:12;10.40;;;7.45;;
41259;SDS011;26993;48.958;9.330;2022-08-19T12:36:00;8.27;;;6.60;;
41259;SDS011;26993;48.958;9.330;2022-08-19T12:38:49;9.90;;;7.35;;
41259;SDS011;26993;48.958;9.330;2022-08-19T12:41:36;6.85;;;6.25;;
41259;SDS011;26993;48.958;9.330;2022-08-19T12:44:24;8.05;;;6.68;;
41259;SDS011;26993;48.958;9.330;2022-08-19T12:47:11;11.35;;;7.07;;
41259;SDS011;26993;48.958;9.330;2022-08-19T12:49:59;7.28;;;6.60;;
41259;SDS011;26993;48.958;9.330;2022-08-19T12:52:46;7.32;;;6.57;;
41259;SDS011;26993;48.958;9.330;2022-08-19T12:55:35;7.15;;;6.40;;
41259;SDS011;26993;48.958;9.330;2022-08-19T12:58:21;7.32;;;6.10;;
41259;SDS011;26993;48.958;9.330;2022-08-19T13:01:09;7.75;;;6.30;;
41259;SDS011;26993;48.958;9.330;2022-08-19T13:03:57;8.48;;;5.80;;
41259;SDS011;26993;48.958;9.330;2022-08-19T13:06:44;6.93;;;6.10;;
41259;SDS011;26993;48.958;9.330;2022-08-19T13:09:31;6.55;;;5.95;;
41259;SDS011;26993;48.958;9.330;2022-08-19T13:12:19;6.80;;;6.10;;
41259;SDS011;26993;48.958;9.330;2022-08-19T13:15:06;6.85;;;5.90;;
41259;SDS011;26993;48.958;9.330;2022-08-19T13:17:54;7.88;;;6.25;;
41259;SDS011;26993;48.958;9.330;2022-08-19T13:20:41;7.47;;;6.20;;
41259;SDS011;26993;48.958;9.330;2022-08-19T13:23:28;7.47;;;6.75;;
41259;SDS011;26993;48.958;9.330;2022-08-19T13:26:15;7.70;;;7.00;;
41259;SDS011;26993;48.958;9.330;2022-08-19T13:29:04;8.57;;;7.00;;
41259;SDS011;26993;48.958;9.330;2022-08-19T13:32:08;9.80;;;7.18;;
41259;SDS011;26993;48.958;9.330;2022-08-19T13:35:12;7.70;;;6.93;;
41259;SDS011;26993;48.958;9.330;2022-08-19T13:37:59;11.82;;;6.70;;
41259;SDS011;26993;48.958;9.330;2022-08-19T13:40:46;15.98;;;7.30;;
41259;SDS011;26993;48.958;9.330;2022-08-19T13:43:35;15.35;;;10.70;;
41259;SDS011;26993;48.958;9.330;2022-08-19T13:46:23;19.08;;;14.90;;
41259;SDS011;26993;48.958;9.330;2022-08-19T13:49:11;21.70;;;17.67;;
41259;SDS011;26993;48.958;9.330;2022-08-19T13:51:58;23.15;;;16.60;;
41259;SDS011;26993;48.958;9.330;2022-08-19T13:54:44;21.15;;;15.73;;
41259;SDS011;26993;48.958;9.330;2022-08-19T13:57:31;25.65;;;17.35;;
41259;SDS011;26993;48.958;9.330;2022-08-19T14:00:18;23.35;;;18.52;;
41259;SDS011;26993;48.958;9.330;2022-08-19T14:03:06;25.23;;;18.90;;
41259;SDS011;26993;48.958;9.330;2022-08-19T14:05:53;24.67;;;19.05;;
41259;SDS011;26993;48.958;9.330;2022-08-19T14:08:40;23.42;;;18.77;;
41259;SDS011;26993;48.958;9.330;2022-08-19T14:11:27;23.63;;;18.48;;
41259;SDS011;26993;48.958;9.330;2022-08-19T14:14:14;25.80;;;19.30;;
41259;SDS011;26993;48.958;9.330;2022-08-19T14:17:01;25.40;;;19.77;;
41259;SDS011;26993;48.958;9.330;2022-08-19T14:19:49;22.92;;;19.02;;
41259;SDS011;26993;48.958;9.330;2022-08-19T14:22:38;26.40;;;20.67;;
41259;SDS011;26993;48.958;9.330;2022-08-19T14:25:27;27.20;;;22.10;;
41259;SDS011;26993;48.958;9.330;2022-08-19T14:28:15;23.23;;;20.70;;
41259;SDS011;26993;48.958;9.330;2022-08-19T14:31:02;31.67;;;23.02;;
41259;SDS011;26993;48.958;9.330;2022-08-19T14:33:50;27.52;;;21.48;;
41259;SDS011;26993;48.958;9.330;2022-08-19T14:36:38;27.13;;;21.75;;
41259;SDS011;26993;48.958;9.330;2022-08-19T14:39:26;26.92;;;22.58;;
41259;SDS011;26993;48.958;9.330;2022-08-19T14:42:13;29.38;;;22.63;;
41259;SDS011;26993;48.958;9.330;2022-08-19T14:45:01;27.98;;;24.15;;
41259;SDS011;26993;48.958;9.330;2022-08-19T14:47:49;34.10;;;25.02;;
41259;SDS011;26993;48.958;9.330;2022-08-19T14:50:37;29.15;;;23.05;;
41259;SDS011;26993;48.958;9.330;2022-08-19T14:53:25;27.63;;;23.35;;
41259;SDS011;26993;48.958;9.330;2022-08-19T14:56:12;33.25;;;24.85;;
41259;SDS011;26993;48.958;9.330;2022-08-19T14:59:00;32.17;;;25.13;;
41259;SDS011;26993;48.958;9.330;2022-08-19T15:01:47;33.40;;;25.92;;
41259;SDS011;26993;48.958;9.330;2022-08-19T15:04:33;33.95;;;25.92;;
41259;SDS011;26993;48.958;9.330;2022-08-19T15:07:20;33.25;;;26.65;;
41259;SDS011;26993;48.958;9.330;2022-08-19T15:10:09;36.53;;;28.08;;
41259;SDS011;26993;48.958;9.330;2022-08-19T15:12:58;34.58;;;27.38;;
41259;SDS011;26993;48.958;9.330;2022-08-19T15:15:45;34.42;;;27.50;;
41259;SDS011;26993;48.958;9.330;2022-08-19T15:18:32;34.30;;;26.75;;
41259;SDS011;26993;48.958;9.330;2022-08-19T15:21:20;35.03;;;26.17;;
41259;SDS011;26993;48.958;9.330;2022-08-19T15:24:07;36.03;;;27.50;;
41259;SDS011;26993;48.958;9.330;2022-08-19T15:26:55;35.40;;;25.95;;
41259;SDS011;26993;48.958;9.330;2022-08-19T15:29:42;33.58;;;26.55;;
41259;SDS011;26993;48.958;9.330;2022-08-19T15:32:30;28.50;;;23.63;;
41259;SDS011;26993;48.958;9.330;2022-08-19T15:35:17;31.25;;;23.17;;
41259;SDS011;26993;48.958;9.330;2022-08-19T15:38:04;29.17;;;24.65;;
41259;SDS011;26993;48.958;9.330;2022-08-19T15:40:52;30.83;;;24.90;;
41259;SDS011;26993;48.958;9.330;2022-08-19T15:44:01;31.67;;;24.90;;
41259;SDS011;26993;48.958;9.330;2022-08-19T15:46:52;33.85;;;26.58;;
41259;SDS011;26993;48.958;9.330;2022-08-19T15:49:39;34.33;;;27.67;;
41259;SDS011;26993;48.958;9.330;2022-08-19T15:52:26;31.52;;;26.25;;
41259;SDS011;26993;48.958;9.330;2022-08-19T15:55:13;34.58;;;27.48;;
41259;SDS011;26993;48.958;9.330;2022-08-19T15:58:00;36.50;;;26.33;;
41259;SDS011;26993;48.958;9.330;2022-08-19T16:01:07;32.53;;;25.75;;
41259;SDS011;26993;48.958;9.330;2022-08-19T16:04:11;33.17;;;27.00;;
41259;SDS011;26993;48.958;9.330;2022-08-19T16:07:15;31.45;;;26.83;;
41259;SDS011;26993;48.958;9.330;2022-08-19T16:10:02;30.63;;;25.63;;
41259;SDS011;26993;48.958;9.330;2022-08-19T16:12:49;32.30;;;25.88;;
41259;SDS011;26993;48.958;9.330;2022-08-19T16:15:36;32.85;;;25.70;;
41259;SDS011;26993;48.958;9.330;2022-08-19T16:18:27;30.30;;;25.27;;
41259;SDS011;26993;48.958;9.330;2022-08-19T16:21:15;27.60;;;23.13;;
41259;SDS011;26993;48.958;9.330;2022-08-19T16:24:03;29.00;;;23.80;;
41259;SDS011;26993;48.958;9.330;2022-08-19T16:26:51;32.17;;;24.05;;
41259;SDS011;26993;48.958;9.330;2022-08-19T16:29:38;29.65;;;24.13;;